Time;durP1;ratioP1;P1;durP2;ratioP2;P2;SDS_P1;SDS_P2;PMS_P1;PMS_P2;Temp;Humidity;BMP_temperature;BMP_pressure;BME280_temperature;BME280_humidity;BME280_pressure;Samples;Min_cycle;Max_cycle;Signal;HPM_P1;HPM_P2
2021/05/12 04:50:07;;;;;;;;;;;;;;;8.39;92.56;97286.52;1749786;78;20653;-66
2021/05/12 04:53:37;;;;;;;;;;;;;;;8.73;90.99;97278.55;1782921;79;20597;-66
2021/05/12 04:56:04;;;;;;;;;;;;;;;8.83;90.18;97280.78;1754095;80;20592;-66
2021/05/12 04:58:31;;;;;;;;;;;;;;;8.96;88.38;97277.78;1749525;80;21714;-67
2021/05/12 05:00:57;;;;;;;;;;;;;;;9.08;86.25;97277.63;1743089;80;20539;-66
2021/05/12 05:03:25;;;;;;;;;;;;;;;9.21;85.24;97280.41;1741477;80;20631;-65
2021/05/12 05:05:51;;;;;;;;;;;;;;;9.31;84.19;97271.31;1744720;80;20646;-66
2021/05/12 05:08:18;;;;;;;;;;;;;;;9.40;83.41;97273.25;1748603;80;20785;-69
2021/05/12 05:10:45;;;;;;;;;;;;;;;9.50;82.85;97271.77;1768004;79;21976;-70
2021/05/12 05:13:11;;;;;;;;;;;;;;;9.59;82.83;97265.80;1765920;80;20563;-67
2021/05/12 05:15:38;;;;;;;;;;;;;;;9.68;82.35;97264.30;1744213;80;20298;-68
2021/05/12 05:18:05;;;;;;;;;;;;;;;9.78;82.03;97264.91;1758580;80;20611;-67
2021/05/12 05:20:33;;;;;;;;;;;;;;;9.88;81.45;97263.66;1750354;80;20607;-68
2021/05/12 05:23:00;;;;;;;;;;;;;;;9.99;81.14;97255.34;1761256;79;21732;-69
2021/05/12 05:25:27;;;;;;;;;;;;;;;10.10;80.90;97260.39;1765368;79;20620;-69
2021/05/12 05:27:53;;;;;;;;;;;;;;;10.22;81.07;97257.63;1694552;82;20493;-68
2021/05/12 05:30:20;;;;;;;;;;;;;;;10.34;80.39;97255.59;1687577;83;20639;-67
2021/05/12 05:33:06;;;;;;;;;;;;;;;10.45;80.79;97261.14;1688994;82;20690;-65
2021/05/12 05:35:56;;;;;;;;;;;;;;;10.57;79.94;97253.08;1695379;82;21907;-69
2021/05/12 05:38:41;;;;;;;;;;;;;;;10.72;79.53;97253.14;1663256;83;20610;-71
2021/05/12 05:41:18;;;;;;;;;;;;;;;10.84;79.09;97252.38;1651582;84;20715;-74
2021/05/12 05:44:04;;;;;;;;;;;;;;;10.97;78.68;97249.78;1664429;83;20901;-72
2021/05/12 05:46:49;;;;;;;;;;;;;;;11.10;78.36;97246.66;1688278;82;20485;-69
2021/05/12 05:49:37;;;;;;;;;;;;;;;11.22;78.17;97247.75;1701135;81;21667;-73
2021/05/12 05:52:22;;;;;;;;;;;;;;;11.33;77.66;97239.60;1696162;81;20428;-70
2021/05/12 05:55:08;;;;;;;;;;;;;;;11.47;77.04;97239.08;1685877;82;20279;-65
2021/05/12 05:57:54;;;;;;;;;;;;;;;11.60;78.20;97243.30;1692442;82;20869;-69
2021/05/12 06:00:44;;;;;;;;;;;;;;;11.78;77.94;97243.86;1692229;82;20543;-68
2021/05/12 06:03:08;;;;;;;;;;;;;;;11.92;77.18;97241.74;1687199;82;20768;-72
2021/05/12 06:05:53;;;;;;;;;;;;;;;12.06;77.60;97244.09;1685055;82;20623;-66
2021/05/12 06:08:38;;;;;;;;;;;;;;;12.21;76.88;97245.12;1691375;82;20620;-70
2021/05/12 06:11:23;;;;;;;;;;;;;;;12.33;77.71;97242.44;1688287;82;20310;-67
2021/05/12 06:14:08;;;;;;;;;;;;;;;12.48;78.12;97237.66;1687689;82;20618;-69
2021/05/12 06:16:54;;;;;;;;;;;;;;;12.62;76.46;97233.91;1685340;82;20779;-74
2021/05/12 06:19:39;;;;;;;;;;;;;;;12.74;74.91;97226.50;1687330;82;20593;-68
2021/05/12 06:22:24;;;;;;;;;;;;;;;12.86;73.92;97220.36;1676885;83;20605;-67
2021/05/12 06:25:10;;;;;;;;;;;;;;;12.98;73.09;97220.02;1682638;82;20334;-67
2021/05/12 06:27:55;;;;;;;;;;;;;;;13.06;73.20;97221.56;1690751;82;20418;-70
2021/05/12 06:30:48;;;;;;;;;;;;;;;13.15;72.90;97225.23;1681916;82;21922;-66
2021/05/12 06:33:28;;;;;;;;;;;;;;;13.24;72.10;97220.97;1685511;82;20719;-69
2021/05/12 06:36:15;;;;;;;;;;;;;;;13.34;71.50;97221.41;1684746;82;20560;-69
2021/05/12 06:39:00;;;;;;;;;;;;;;;13.45;71.19;97216.33;1664104;83;20636;-69
2021/05/12 06:41:29;;;;;;;;;;;;;;;13.56;70.48;97214.38;1691628;82;20571;-70
2021/05/12 06:43:55;;;;;;;;;;;;;;;13.65;70.87;97210.87;1690421;83;21672;-71
2021/05/12 06:46:22;;;;;;;;;;;;;;;13.75;69.25;97210.02;1684116;83;20708;-68
2021/05/12 06:48:49;;;;;;;;;;;;;;;13.87;68.85;97209.63;1690047;82;20615;-70
2021/05/12 06:51:16;;;;;;;;;;;;;;;13.98;68.54;97210.56;1683871;82;21005;-66
2021/05/12 06:53:42;;;;;;;;;;;;;;;14.11;67.79;97212.31;1691081;83;20564;-74
2021/05/12 06:56:09;;;;;;;;;;;;;;;14.23;67.34;97212.70;1694844;81;21660;-72
2021/05/12 06:58:38;;;;;;;;;;;;;;;14.33;67.39;97215.25;1692699;83;20530;-67
2021/05/12 07:01:04;;;;;;;;;;;;;;;14.43;67.17;97211.98;1690106;83;20702;-67
2021/05/12 07:03:30;;;;;;;;;;;;;;;14.54;66.99;97208.69;1692017;83;20248;-67
2021/05/12 07:05:58;;;;;;;;;;;;;;;14.65;66.71;97210.13;1692059;83;20653;-71
2021/05/12 07:08:25;;;;;;;;;;;;;;;14.78;66.40;97216.57;1691064;83;21731;-68
2021/05/12 07:10:52;;;;;;;;;;;;;;;14.88;65.47;97207.73;1688853;83;20176;-71
2021/05/12 07:13:18;;;;;;;;;;;;;;;14.98;65.32;97209.72;1688474;83;20535;-74
2021/05/12 07:15:45;;;;;;;;;;;;;;;15.09;65.74;97205.84;1686794;82;20280;-70
2021/05/12 07:18:11;;;;;;;;;;;;;;;15.22;65.00;97212.27;1692348;83;20597;-67
2021/05/12 07:20:38;;;;;;;;;;;;;;;15.35;64.43;97213.39;1687757;83;21736;-73
2021/05/12 07:23:07;;;;;;;;;;;;;;;15.45;64.61;97203.45;1689514;83;20536;-70
2021/05/12 07:25:34;;;;;;;;;;;;;;;15.54;64.02;97211.56;1686303;83;20512;-69
2021/05/12 07:28:00;;;;;;;;;;;;;;;15.66;64.76;97218.50;1689402;83;20460;-65
2021/05/12 07:30:27;;;;;;;;;;;;;;;15.79;63.87;97211.66;1690505;83;20729;-70
2021/05/12 07:32:54;;;;;;;;;;;;;;;15.91;62.62;97211.47;1689361;83;21609;-70
2021/05/12 07:35:20;;;;;;;;;;;;;;;15.99;62.20;97210.77;1696487;83;20508;-69
2021/05/12 07:37:47;;;;;;;;;;;;;;;16.09;62.30;97201.07;1694296;81;20563;-67
2021/05/12 07:40:14;;;;;;;;;;;;;;;16.20;61.73;97194.52;1691841;83;20271;-69
2021/05/12 07:42:43;;;;;;;;;;;;;;;16.33;61.04;97187.10;1693102;83;20643;-69
2021/05/12 07:45:11;;;;;;;;;;;;;;;16.49;61.58;97192.36;1691030;83;22262;-69
2021/05/12 07:47:38;;;;;;;;;;;;;;;16.62;61.40;97192.91;1691566;82;20619;-70
2021/05/12 07:50:07;;;;;;;;;;;;;;;16.75;60.80;97189.98;1695327;83;20606;-74
2021/05/12 07:52:33;;;;;;;;;;;;;;;16.91;60.94;97187.80;1674224;83;20669;-68
2021/05/12 07:55:00;;;;;;;;;;;;;;;17.08;60.74;97187.39;1691713;82;20641;-68
2021/05/12 07:57:27;;;;;;;;;;;;;;;17.24;59.35;97187.05;1689273;82;21519;-71
2021/05/12 07:59:53;;;;;;;;;;;;;;;17.36;58.96;97182.76;1688724;83;20620;-71
2021/05/12 08:02:20;;;;;;;;;;;;;;;17.47;57.60;97181.45;1687859;82;20561;-69
2021/05/12 08:04:47;;;;;;;;;;;;;;;17.62;57.09;97178.20;1689089;83;20636;-72
2021/05/12 08:07:14;;;;;;;;;;;;;;;17.74;57.76;97173.89;1689889;83;20551;-67
2021/05/12 08:09:41;;;;;;;;;;;;;;;17.86;57.01;97185.31;1689624;82;20598;-68
2021/05/12 08:12:08;;;;;;;;;;;;;;;17.95;56.44;97181.59;1692090;82;20638;-74
2021/05/12 08:14:34;;;;;;;;;;;;;;;18.07;54.98;97174.93;1684998;82;20291;-71
2021/05/12 08:17:01;;;;;;;;;;;;;;;18.13;54.64;97173.16;1692091;82;20151;-66
2021/05/12 08:19:28;;;;;;;;;;;;;;;18.21;54.54;97172.95;1686663;82;20663;-66
2021/05/12 08:21:54;;;;;;;;;;;;;;;18.26;54.92;97169.59;1685986;82;21689;-64
2021/05/12 08:24:21;;;;;;;;;;;;;;;18.34;54.02;97167.52;1689201;82;20548;-68
2021/05/12 08:26:47;;;;;;;;;;;;;;;18.42;53.95;97161.20;1685500;82;20635;-67
2021/05/12 08:29:16;;;;;;;;;;;;;;;18.49;53.70;97157.53;1692489;82;20613;-72
2021/05/12 08:31:45;;;;;;;;;;;;;;;18.59;53.91;97161.25;1693822;83;20396;-68
2021/05/12 08:34:12;;;;;;;;;;;;;;;18.70;54.25;97154.55;1694309;82;21522;-65
2021/05/12 08:36:38;;;;;;;;;;;;;;;18.81;53.90;97148.36;1692566;82;20228;-65
2021/05/12 08:39:06;;;;;;;;;;;;;;;18.89;53.94;97147.59;1663773;83;20480;-67
2021/05/12 08:41:34;;;;;;;;;;;;;;;18.99;54.37;97141.97;1689691;82;20675;-64
2021/05/12 08:44:02;;;;;;;;;;;;;;;19.09;53.60;97142.97;1693212;83;20386;-65
2021/05/12 08:46:29;;;;;;;;;;;;;;;19.17;51.56;97140.06;1696166;82;22213;-67
2021/05/12 08:48:55;;;;;;;;;;;;;;;19.25;52.05;97142.73;1692365;82;20599;-67
2021/05/12 08:51:24;;;;;;;;;;;;;;;19.30;51.21;97143.14;1663732;83;21018;-66
2021/05/12 08:53:50;;;;;;;;;;;;;;;19.35;51.66;97139.75;1680976;83;20609;-68
2021/05/12 08:56:17;;;;;;;;;;;;;;;19.43;51.82;97138.95;1682983;82;20517;-67
2021/05/12 08:58:44;;;;;;;;;;;;;;;19.53;51.33;97138.40;1684503;82;21626;-67
2021/05/12 09:01:14;;;;;;;;;;;;;;;19.60;51.37;97134.16;1683687;82;20610;-65
2021/05/12 09:03:45;;;;;;;;;;;;;;;19.64;51.14;97131.10;1638963;85;20647;-68
2021/05/12 09:06:12;;;;;;;;;;;;;;;19.67;50.74;97126.45;1634994;86;20618;-69
2021/05/12 09:08:38;;;;;;;;;;;;;;;19.72;51.20;97124.18;1632561;85;20623;-69
2021/05/12 09:11:05;;;;;;;;;;;;;;;19.77;50.20;97120.00;1641533;86;21942;-68
2021/05/12 09:13:55;;;;;;;;;;;;;;;19.82;50.17;97119.81;1627412;86;20296;-70
2021/05/12 09:16:24;;;;;;;;;;;;;;;19.89;49.93;97112.10;1630619;86;20555;-68
2021/05/12 09:19:10;;;;;;;;;;;;;;;19.95;49.61;97106.06;1636500;85;20620;-68
2021/05/12 09:21:51;;;;;;;;;;;;;;;20.03;49.33;97111.88;1629512;86;20600;-70
2021/05/12 09:24:22;;;;;;;;;;;;;;;20.11;48.56;97108.39;1631637;86;20770;-68
2021/05/12 09:26:50;;;;;;;;;;;;;;;20.17;49.13;97102.55;1643069;86;20571;-71
2021/05/12 09:29:27;;;;;;;;;;;;;;;20.23;50.03;97107.17;1683818;82;20596;-69
2021/05/12 09:32:08;;;;;;;;;;;;;;;20.30;49.99;97102.66;1698915;82;20602;-68
2021/05/12 09:35:01;;;;;;;;;;;;;;;20.39;49.44;97102.07;1689986;82;20549;-68
2021/05/12 09:37:38;;;;;;;;;;;;;;;20.49;49.23;97100.37;1693740;82;21515;-68
2021/05/12 09:40:15;;;;;;;;;;;;;;;20.59;48.59;97109.34;1678310;83;20289;-71
2021/05/12 09:42:42;;;;;;;;;;;;;;;20.64;48.50;97102.47;1680645;82;20523;-71
2021/05/12 09:45:21;;;;;;;;;;;;;;;20.68;48.32;97105.25;1681615;82;20610;-70
2021/05/12 09:47:50;;;;;;;;;;;;;;;20.72;49.29;97106.19;1668972;83;20527;-70
2021/05/12 09:50:22;;;;;;;;;;;;;;;20.76;48.28;97099.86;1683154;82;21618;-70
2021/05/12 09:52:52;;;;;;;;;;;;;;;20.81;48.51;97094.89;1681732;83;20527;-67
2021/05/12 09:55:19;;;;;;;;;;;;;;;20.84;48.64;97099.56;1686339;83;20584;-70
2021/05/12 09:58:08;;;;;;;;;;;;;;;20.89;48.70;97088.12;1690891;82;20558;-69
2021/05/12 10:00:39;;;;;;;;;;;;;;;20.95;48.50;97094.06;1694824;83;20454;-70
2021/05/12 10:03:06;;;;;;;;;;;;;;;20.99;48.54;97089.62;1690082;83;21564;-68
2021/05/12 10:05:56;;;;;;;;;;;;;;;21.01;48.93;97088.75;1696914;83;20715;-67
2021/05/12 10:08:34;;;;;;;;;;;;;;;21.03;48.82;97093.97;1693113;82;20257;-73
2021/05/12 10:11:03;;;;;;;;;;;;;;;21.09;49.10;97084.44;1688898;83;20523;-70
2021/05/12 10:13:30;;;;;;;;;;;;;;;21.13;49.08;97088.00;1694201;83;20883;-71
2021/05/12 10:15:57;;;;;;;;;;;;;;;21.18;49.28;97082.50;1694213;83;21694;-69
2021/05/12 10:18:23;;;;;;;;;;;;;;;21.22;49.74;97082.05;1696000;82;20575;-71
2021/05/12 10:20:53;;;;;;;;;;;;;;;21.25;50.11;97084.84;1689008;83;20513;-71
2021/05/12 10:23:19;;;;;;;;;;;;;;;21.29;48.95;97083.63;1686523;83;20576;-68
2021/05/12 10:25:45;;;;;;;;;;;;;;;21.32;49.21;97081.66;1684757;83;20593;-69
2021/05/12 10:28:12;;;;;;;;;;;;;;;21.36;50.36;97080.65;1694832;83;21696;-69
2021/05/12 10:30:38;;;;;;;;;;;;;;;21.41;50.46;97083.66;1686713;83;20244;-67
2021/05/12 10:33:08;;;;;;;;;;;;;;;21.45;50.14;97079.78;1672560;83;20576;-68
2021/05/12 10:35:35;;;;;;;;;;;;;;;21.48;51.78;97082.56;1696674;82;20218;-69
2021/05/12 10:38:02;;;;;;;;;;;;;;;21.54;52.57;97077.80;1695836;82;20564;-69
2021/05/12 10:40:32;;;;;;;;;;;;;;;21.59;53.00;97077.58;1703430;82;21689;-72
2021/05/12 10:45:51;;;;;;;;;;;;;;;21.65;53.27;97066.89;1672480;82;20552;-68
2021/05/12 10:48:42;;;;;;;;;;;;;;;21.67;53.16;97070.80;1670039;83;21304;-70
2021/05/12 10:51:12;;;;;;;;;;;;;;;21.62;53.37;97075.01;1606256;87;20579;-67
2021/05/12 10:53:52;;;;;;;;;;;;;;;21.63;54.29;97069.11;1626165;84;23390;-69
2021/05/12 10:56:21;;;;;;;;;;;;;;;21.68;54.77;97070.25;1614945;87;20576;-69
2021/05/12 10:58:59;;;;;;;;;;;;;;;21.62;53.68;97077.69;1605789;87;20566;-70
2021/05/12 11:01:34;;;;;;;;;;;;;;;21.55;54.49;97077.45;1614463;87;20555;-70
2021/05/12 11:04:03;;;;;;;;;;;;;;;21.52;54.66;97078.69;1602438;87;20618;-76
2021/05/12 11:06:39;;;;;;;;;;;;;;;21.53;55.62;97069.55;1580805;88;20617;-68
2021/05/12 11:09:13;;;;;;;;;;;;;;;21.61;56.36;97071.35;1602051;87;20552;-67
2021/05/12 11:11:46;;;;;;;;;;;;;;;21.70;55.16;97071.45;1599793;87;20583;-66
2021/05/12 11:14:32;;;;;;;;;;;;;;;21.71;55.13;97062.33;1610367;87;20567;-67
2021/05/12 11:17:09;;;;;;;;;;;;;;;21.75;55.93;97069.14;1600028;87;20649;-66
2021/05/12 11:19:49;;;;;;;;;;;;;;;21.87;56.37;97063.00;1625138;86;21959;-66
2021/05/12 11:22:44;;;;;;;;;;;;;;;21.96;54.35;97059.67;1609342;87;20475;-67
2021/05/12 11:25:30;;;;;;;;;;;;;;;22.02;54.49;97048.44;1616488;86;20576;-70
2021/05/12 11:33:31;;;;;;;;;;;;;;;22.23;54.31;97048.86;1628614;86;21634;-69
2021/05/12 11:36:06;;;;;;;;;;;;;;;22.28;54.94;97052.63;1626378;87;20521;-71
2021/05/12 11:38:27;;;;;;;;;;;;;;;22.35;54.99;97054.18;1625302;86;20602;-65
2021/05/12 11:41:02;;;;;;;;;;;;;;;22.38;54.05;97050.84;1627768;86;20254;-71
2021/05/12 11:43:40;;;;;;;;;;;;;;;22.42;53.53;97044.46;1618643;86;20560;-69
2021/05/12 11:46:14;;;;;;;;;;;;;;;22.41;53.08;97041.56;1622538;85;21705;-71
2021/05/12 11:48:45;;;;;;;;;;;;;;;22.43;53.41;97042.56;1617720;86;20598;-69
2021/05/12 11:51:14;;;;;;;;;;;;;;;22.42;53.16;97044.46;1624648;86;20556;-70
2021/05/12 11:53:43;;;;;;;;;;;;;;;22.38;53.83;97040.91;1613144;86;20202;-73
2021/05/12 11:56:10;;;;;;;;;;;;;;;22.33;53.09;97039.79;1618275;86;20904;-75
2021/05/12 11:58:39;;;;;;;;;;;;;;;22.33;53.64;97037.70;1627947;86;21620;-70
2021/05/12 12:01:07;;;;;;;;;;;;;;;22.40;54.18;97038.69;1599914;86;20233;-73
2021/05/12 12:03:40;;;;;;;;;;;;;;;22.47;52.80;97032.20;1622782;86;20383;-70
2021/05/12 12:06:05;;;;;;;;;;;;;;;22.49;52.35;97030.50;1625836;85;20729;-69
2021/05/12 12:08:32;;;;;;;;;;;;;;;22.48;53.04;97031.61;1588752;86;20804;-68
2021/05/12 12:11:13;;;;;;;;;;;;;;;22.55;52.61;97031.81;1613413;86;22404;-68
2021/05/12 12:13:41;;;;;;;;;;;;;;;22.69;53.17;97031.47;1616487;86;20588;-66
2021/05/12 12:16:08;;;;;;;;;;;;;;;22.89;52.41;97029.17;1620751;86;20223;-65
2021/05/12 12:18:39;;;;;;;;;;;;;;;23.03;50.82;97022.86;1618420;87;20515;-71
2021/05/12 12:21:08;;;;;;;;;;;;;;;23.11;51.34;97015.78;1610213;86;21140;-70
2021/05/12 12:23:36;;;;;;;;;;;;;;;23.23;50.60;97023.19;1591984;86;21727;-71
2021/05/12 12:26:16;;;;;;;;;;;;;;;23.34;50.55;97018.86;1595452;87;20565;-74
2021/05/12 12:28:56;;;;;;;;;;;;;;;23.47;50.87;97016.12;1611443;87;20566;-69
2021/05/12 12:31:27;;;;;;;;;;;;;;;23.62;51.64;97020.73;1600761;88;20630;-69
2021/05/12 12:34:21;;;;;;;;;;;;;;;23.68;50.50;97020.69;1616106;85;20710;-65
2021/05/12 12:37:04;;;;;;;;;;;;;;;23.53;49.80;97022.81;1610744;87;21841;-61
2021/05/12 12:39:50;;;;;;;;;;;;;;;23.27;49.70;97020.02;1602303;87;20687;-63
2021/05/12 12:42:22;;;;;;;;;;;;;;;23.04;50.12;97010.23;1606670;87;20576;-70
2021/05/12 12:44:49;;;;;;;;;;;;;;;22.85;51.15;97017.56;1618205;86;21128;-69
2021/05/12 12:47:17;;;;;;;;;;;;;;;22.75;51.48;97017.52;1605342;87;20718;-63
2021/05/12 12:49:47;;;;;;;;;;;;;;;22.79;52.55;97012.23;1595212;87;21855;-67
2021/05/12 12:52:16;;;;;;;;;;;;;;;22.82;52.04;97011.56;1594951;87;20579;-69
2021/05/12 12:57:20;;;;;;;;;;;;;;;22.95;51.34;97007.70;1601973;88;20252;-70
2021/05/12 13:00:22;;;;;;;;;;;;;;;23.02;51.29;97003.09;1584118;88;20664;-67
2021/05/12 13:03:06;;;;;;;;;;;;;;;23.14;52.08;97005.70;1563440;88;21696;-70
2021/05/12 13:05:50;;;;;;;;;;;;;;;23.22;51.12;96999.39;1595391;88;20649;-67
2021/05/12 13:08:38;;;;;;;;;;;;;;;23.22;50.14;97005.54;1605773;88;20824;-68
2021/05/12 13:11:10;;;;;;;;;;;;;;;23.19;50.84;97004.91;1602385;88;20515;-66
2021/05/12 13:13:48;;;;;;;;;;;;;;;23.20;50.68;97001.08;1595451;87;21177;-69
2021/05/12 13:16:27;;;;;;;;;;;;;;;23.19;50.56;96995.52;1609513;87;21686;-74
2021/05/12 13:19:00;;;;;;;;;;;;;;;23.26;50.37;96994.92;1605230;87;20231;-68
2021/05/12 13:21:35;;;;;;;;;;;;;;;23.31;49.75;96991.41;1610278;88;20744;-71
2021/05/12 13:24:13;;;;;;;;;;;;;;;23.31;49.98;96996.77;1602607;87;20588;-72
2021/05/12 13:26:41;;;;;;;;;;;;;;;23.33;49.56;96986.50;1602452;88;20527;-73
2021/05/12 13:29:12;;;;;;;;;;;;;;;23.33;49.29;96983.03;1608597;86;21647;-71
2021/05/12 13:31:38;;;;;;;;;;;;;;;23.26;48.86;96988.22;1608159;86;20234;-74
2021/05/12 13:34:11;;;;;;;;;;;;;;;23.18;48.50;96981.12;1599390;87;20634;-73
2021/05/12 13:36:45;;;;;;;;;;;;;;;23.11;49.10;96984.95;1602841;88;20622;-66
2021/05/12 13:39:12;;;;;;;;;;;;;;;23.01;49.17;96989.47;1618999;85;20509;-67
2021/05/12 13:41:39;;;;;;;;;;;;;;;22.87;49.83;96976.48;1605092;88;21644;-66
2021/05/12 13:44:06;;;;;;;;;;;;;;;22.70;49.52;96979.42;1597251;87;20507;-65
2021/05/12 13:46:32;;;;;;;;;;;;;;;22.55;49.79;96984.39;1596044;87;20610;-68
2021/05/12 13:48:59;;;;;;;;;;;;;;;22.54;50.57;96973.48;1595223;87;21143;-68
2021/05/12 13:51:32;;;;;;;;;;;;;;;22.66;49.36;96981.23;1612578;86;20376;-66
2021/05/12 13:53:59;;;;;;;;;;;;;;;22.60;49.65;96976.69;1617961;86;20903;-64
2021/05/12 13:56:31;;;;;;;;;;;;;;;22.59;50.06;96977.25;1619671;86;20653;-66
2021/05/12 14:01:48;;;;;;;;;;;;;;;22.79;50.43;96982.77;1642695;84;21623;-64
2021/05/12 14:04:03;;;;;;;;;;;;;;;22.96;50.21;96986.48;1599307;87;20478;-66
2021/05/12 14:06:31;;;;;;;;;;;;;;;23.11;50.18;96983.62;1627581;86;21639;-68
2021/05/12 14:09:06;;;;;;;;;;;;;;;23.35;50.16;96986.12;1612142;86;20816;-72
2021/05/12 14:11:27;;;;;;;;;;;;;;;23.38;49.07;96981.98;1617960;84;20431;-64
2021/05/12 14:14:09;;;;;;;;;;;;;;;23.35;49.18;96978.86;1622251;86;20602;-65
2021/05/12 14:16:38;;;;;;;;;;;;;;;23.33;48.77;96974.98;1625882;86;20586;-62
2021/05/12 14:18:59;;;;;;;;;;;;;;;23.28;48.82;96984.05;1614020;86;21843;-67
2021/05/12 14:21:26;;;;;;;;;;;;;;;23.32;48.84;96980.13;1593177;87;20664;-62
2021/05/12 14:23:53;;;;;;;;;;;;;;;23.40;48.87;96978.41;1589727;89;20597;-62
2021/05/12 14:26:20;;;;;;;;;;;;;;;23.44;48.49;96985.40;1589041;89;20296;-62
2021/05/12 14:28:55;;;;;;;;;;;;;;;23.50;47.92;96990.74;1590951;89;20561;-61
2021/05/12 14:31:18;;;;;;;;;;;;;;;23.55;47.02;96976.31;1591098;88;21821;-62
2021/05/12 14:33:44;;;;;;;;;;;;;;;23.52;47.52;96995.20;1590717;89;20564;-61
2021/05/12 14:36:11;;;;;;;;;;;;;;;23.47;46.94;96978.02;1590876;89;20628;-61
2021/05/12 14:38:38;;;;;;;;;;;;;;;23.41;47.14;96985.33;1590779;89;20541;-62
2021/05/12 14:41:04;;;;;;;;;;;;;;;23.40;47.55;96989.91;1590765;89;20589;-62
2021/05/12 14:43:31;;;;;;;;;;;;;;;23.47;46.78;96982.59;1590803;89;21713;-62
2021/05/12 14:45:57;;;;;;;;;;;;;;;23.44;46.86;96983.28;1590657;89;20249;-62
2021/05/12 14:48:29;;;;;;;;;;;;;;;23.45;46.43;96980.81;1590741;89;20258;-67
2021/05/12 14:50:54;;;;;;;;;;;;;;;23.45;45.85;96985.62;1591053;88;20545;-67
2021/05/12 14:53:25;;;;;;;;;;;;;;;23.33;45.75;96983.81;1590855;89;20546;-67
2021/05/12 15:06:34;;;;;;;;;;;;;;;22.46;46.35;96989.69;1590714;89;20600;-70
2021/05/12 15:08:58;;;;;;;;;;;;;;;22.12;47.07;96989.64;1591126;88;21157;-66
2021/05/12 15:11:25;;;;;;;;;;;;;;;22.00;47.86;96991.80;1590913;89;20550;-69
2021/05/12 15:13:51;;;;;;;;;;;;;;;22.09;47.68;96997.02;1590896;89;20543;-67
2021/05/12 15:16:20;;;;;;;;;;;;;;;22.24;47.33;96998.22;1590817;89;20556;-65
2021/05/12 15:18:46;;;;;;;;;;;;;;;22.21;47.08;97001.01;1590953;89;20664;-65
2021/05/12 15:21:13;;;;;;;;;;;;;;;22.03;47.16;97003.73;1590635;89;21721;-65
2021/05/12 15:23:39;;;;;;;;;;;;;;;21.71;47.35;96992.00;1590635;89;20569;-65
2021/05/12 15:26:06;;;;;;;;;;;;;;;21.39;47.90;96995.80;1590700;89;20530;-65
2021/05/12 15:28:32;;;;;;;;;;;;;;;21.12;48.29;97002.27;1590762;89;20557;-66
2021/05/12 15:30:59;;;;;;;;;;;;;;;20.97;48.77;96999.66;1590748;89;20616;-65
2021/05/12 15:33:26;;;;;;;;;;;;;;;20.90;48.95;96997.53;1590809;89;20580;-66
2021/05/12 15:35:53;;;;;;;;;;;;;;;20.76;49.33;96999.71;1590756;89;20264;-64
2021/05/12 15:38:20;;;;;;;;;;;;;;;20.60;49.42;97002.78;1590740;89;20549;-66
2021/05/12 15:40:46;;;;;;;;;;;;;;;20.47;49.73;97002.48;1590796;89;20561;-66
2021/05/12 15:43:13;;;;;;;;;;;;;;;20.36;49.41;97010.11;1590875;89;20573;-66
2021/05/12 15:45:40;;;;;;;;;;;;;;;20.21;50.04;97010.66;1590755;89;20781;-65
2021/05/12 15:48:07;;;;;;;;;;;;;;;20.11;50.35;97017.70;1590566;89;20554;-65
2021/05/12 15:50:35;;;;;;;;;;;;;;;19.97;50.46;97010.48;1588783;89;20564;-66
2021/05/12 15:53:02;;;;;;;;;;;;;;;19.87;50.80;97015.66;1528893;92;20595;-67
2021/05/12 15:55:28;;;;;;;;;;;;;;;19.88;51.08;97016.65;1591712;89;20555;-66
2021/05/12 15:57:55;;;;;;;;;;;;;;;19.92;51.06;97010.13;1591617;88;21667;-67
2021/05/12 16:00:22;;;;;;;;;;;;;;;19.93;50.63;97017.03;1591399;88;20576;-66
2021/05/12 16:02:50;;;;;;;;;;;;;;;19.83;50.20;97006.17;1591395;88;20562;-66
2021/05/12 16:05:17;;;;;;;;;;;;;;;19.71;50.43;97022.09;1591355;88;20313;-66
2021/05/12 16:07:43;;;;;;;;;;;;;;;19.58;50.10;97012.98;1591366;88;20547;-66
2021/05/12 16:10:12;;;;;;;;;;;;;;;19.48;49.90;97016.77;1591535;88;21665;-66
2021/05/12 16:12:40;;;;;;;;;;;;;;;19.38;49.89;97017.86;1591403;88;20563;-67
2021/05/12 16:15:07;;;;;;;;;;;;;;;19.27;49.94;97017.20;1591493;88;20516;-67
2021/05/12 16:17:34;;;;;;;;;;;;;;;19.22;50.44;97024.05;1591405;88;20531;-67
2021/05/12 16:20:00;;;;;;;;;;;;;;;19.21;50.68;97027.26;1591538;88;20564;-66
2021/05/12 16:22:27;;;;;;;;;;;;;;;19.21;50.40;97026.47;1591394;88;21651;-66
2021/05/12 16:24:54;;;;;;;;;;;;;;;19.19;50.16;97027.33;1591258;88;20638;-66
2021/05/12 16:27:21;;;;;;;;;;;;;;;19.24;50.41;97028.48;1591475;88;20610;-65
2021/05/12 16:29:48;;;;;;;;;;;;;;;19.31;50.03;97024.23;1591747;88;20574;-66
2021/05/12 16:32:16;;;;;;;;;;;;;;;19.37;49.83;97023.53;1591420;88;20570;-67
2021/05/12 16:34:43;;;;;;;;;;;;;;;19.36;49.58;97025.41;1591462;88;21584;-67
2021/05/12 16:37:09;;;;;;;;;;;;;;;19.34;49.83;97025.48;1591443;88;20559;-67
2021/05/12 16:39:36;;;;;;;;;;;;;;;19.31;49.40;97025.56;1591361;88;20235;-66
2021/05/12 16:42:02;;;;;;;;;;;;;;;19.26;49.56;97032.95;1591461;88;20600;-66
2021/05/12 16:44:29;;;;;;;;;;;;;;;19.22;49.33;97030.16;1591835;88;20567;-67
2021/05/12 16:46:55;;;;;;;;;;;;;;;19.21;49.25;97033.91;1591425;88;21679;-67
2021/05/12 16:49:23;;;;;;;;;;;;;;;19.25;49.10;97035.37;1591223;88;20552;-64
2021/05/12 16:51:50;;;;;;;;;;;;;;;19.23;49.38;97031.73;1588553;88;20220;-66
2021/05/12 16:54:16;;;;;;;;;;;;;;;19.17;49.33;97036.18;1584598;88;20567;-66
2021/05/12 16:56:43;;;;;;;;;;;;;;;19.04;49.21;97033.39;1584695;88;20556;-66
2021/05/12 16:59:09;;;;;;;;;;;;;;;18.93;49.54;97038.05;1584841;88;21626;-67
2021/05/12 17:01:36;;;;;;;;;;;;;;;18.87;50.00;97037.44;1584808;88;20552;-66
2021/05/12 17:04:03;;;;;;;;;;;;;;;18.84;50.15;97033.27;1584645;88;20547;-67
2021/05/12 17:06:29;;;;;;;;;;;;;;;18.76;49.95;97037.50;1584575;88;20255;-67
2021/05/12 17:08:57;;;;;;;;;;;;;;;18.66;50.07;97038.59;1584586;88;20571;-67
2021/05/12 17:11:37;;;;;;;;;;;;;;;18.59;50.13;97046.27;1584835;88;21674;-66
2021/05/12 17:13:58;;;;;;;;;;;;;;;18.50;50.47;97040.16;1583907;89;20575;-66
2021/05/12 17:16:24;;;;;;;;;;;;;;;18.35;50.47;97037.95;1584763;88;20559;-66
2021/05/12 17:18:51;;;;;;;;;;;;;;;18.16;51.02;97033.44;1584500;88;20559;-67
2021/05/12 17:21:17;;;;;;;;;;;;;;;17.94;51.16;97029.02;1584536;88;20593;-67
2021/05/12 17:23:44;;;;;;;;;;;;;;;17.77;51.76;97036.96;1584709;88;21649;-66
2021/05/12 17:26:16;;;;;;;;;;;;;;;17.64;51.86;97033.88;1584713;88;20539;-67
2021/05/12 17:28:43;;;;;;;;;;;;;;;17.50;52.19;97031.29;1584365;89;20536;-68
2021/05/12 17:31:07;;;;;;;;;;;;;;;17.35;52.67;97026.38;1584479;89;20551;-66
2021/05/12 17:33:34;;;;;;;;;;;;;;;17.16;52.95;97028.69;1584669;88;20593;-67
2021/05/12 17:36:00;;;;;;;;;;;;;;;17.03;53.43;97032.21;1584432;88;21682;-66
2021/05/12 17:38:27;;;;;;;;;;;;;;;16.93;53.88;97036.42;1584616;88;20549;-67
2021/05/12 17:40:53;;;;;;;;;;;;;;;16.82;54.27;97033.79;1584787;88;20547;-67
2021/05/12 17:43:20;;;;;;;;;;;;;;;16.71;54.54;97030.58;1584525;88;20552;-67
2021/05/12 17:45:46;;;;;;;;;;;;;;;16.61;54.54;97028.72;1609281;87;20560;-66
2021/05/12 17:48:15;;;;;;;;;;;;;;;16.52;54.73;97018.00;1585796;89;21869;-67
2021/05/12 17:50:42;;;;;;;;;;;;;;;16.42;55.08;97018.80;1586062;89;20575;-68
2021/05/12 17:53:09;;;;;;;;;;;;;;;16.30;55.00;97023.27;1616650;88;20559;-67
2021/05/12 17:55:35;;;;;;;;;;;;;;;16.17;55.26;97024.88;1623157;88;20546;-67
2021/05/12 17:58:02;;;;;;;;;;;;;;;16.05;55.48;97028.59;1623189;88;20649;-66
2021/05/12 18:00:28;;;;;;;;;;;;;;;15.91;55.50;97033.91;1623442;88;21574;-66
2021/05/12 18:02:55;;;;;;;;;;;;;;;15.81;55.74;97035.97;1623451;88;20558;-66
2021/05/12 18:05:24;;;;;;;;;;;;;;;15.73;55.88;97037.98;1623538;88;20574;-66
2021/05/12 18:07:52;;;;;;;;;;;;;;;15.65;56.08;97034.15;1623272;87;20571;-67
2021/05/12 18:10:31;;;;;;;;;;;;;;;15.59;56.22;97029.50;1623412;87;20582;-67
2021/05/12 18:18:20;;;;;;;;;;;;;;;15.42;56.49;97046.45;1623457;88;20554;-67
2021/05/12 18:20:46;;;;;;;;;;;;;;;15.36;56.39;97037.58;1623333;88;20559;-66
2021/05/12 18:23:13;;;;;;;;;;;;;;;15.34;56.60;97034.45;1623409;88;20574;-67
2021/05/12 18:25:39;;;;;;;;;;;;;;;15.33;56.44;97040.83;1623435;88;21793;-66